createdAt,value
2022-08-23T00:01:39.447Z,14.23
2022-08-23T00:04:12.873Z,14.29
2022-08-23T00:06:42.571Z,14.31
2022-08-23T00:09:10.426Z,14.24
2022-08-23T00:11:42.571Z,14.17
2022-08-23T00:14:26.555Z,14.09
2022-08-23T00:16:55.262Z,14.09
2022-08-23T00:19:24.029Z,14.06
2022-08-23T00:21:53.510Z,13.98
2022-08-23T00:24:21.785Z,14.00
2022-08-23T00:27:15.725Z,13.92
2022-08-23T00:29:52.741Z,13.85
2022-08-23T00:32:32.207Z,13.90
2022-08-23T00:35:01.142Z,13.88
2022-08-23T00:37:31.335Z,13.82
2022-08-23T00:39:59.213Z,13.80
2022-08-23T00:42:57.438Z,13.91
2022-08-23T00:46:02.430Z,13.86
2022-08-23T00:48:30.350Z,13.67
2022-08-23T00:51:09.941Z,13.63
2022-08-23T00:53:42.696Z,13.40
2022-08-23T00:56:12.483Z,13.43
2022-08-23T00:58:39.657Z,13.32
2022-08-23T01:01:07.782Z,13.25
2022-08-23T01:03:40.337Z,13.37
2022-08-23T01:06:25.062Z,13.12
2022-08-23T01:08:58.083Z,12.92
2022-08-23T01:11:33.422Z,12.96
2022-08-23T01:14:27.973Z,12.97
2022-08-23T01:17:11.239Z,12.97
2022-08-23T01:19:41.907Z,12.87
2022-08-23T01:22:17.820Z,12.81
2022-08-23T01:25:07.741Z,12.81
2022-08-23T01:27:33.199Z,12.89
2022-08-23T01:30:00.278Z,12.80
2022-08-23T01:32:27.474Z,12.82
2022-08-23T01:34:54.318Z,12.95
2022-08-23T01:37:22.189Z,12.86
2022-08-23T01:39:49.113Z,12.69
2022-08-23T01:42:15.968Z,12.86
2022-08-23T01:44:42.762Z,12.84
2022-08-23T01:47:09.561Z,12.83
2022-08-23T01:49:36.358Z,12.74
2022-08-23T01:52:03.845Z,12.75
2022-08-23T01:54:30.639Z,12.74
2022-08-23T01:56:57.508Z,12.61
2022-08-23T01:59:24.458Z,12.43
2022-08-23T02:01:51.709Z,12.41
2022-08-23T02:04:18.881Z,12.50
2022-08-23T02:06:46.091Z,12.58
2022-08-23T02:09:17.341Z,12.62
2022-08-23T02:11:46.043Z,12.66
2022-08-23T02:14:19.815Z,12.64
2022-08-23T02:17:03.062Z,12.70
2022-08-23T02:19:36.741Z,12.73
2022-08-23T02:22:06.072Z,12.51
2022-08-23T02:24:33.192Z,12.37
2022-08-23T02:27:04.426Z,12.28
2022-08-23T02:29:35.175Z,12.22
2022-08-23T02:32:06.226Z,12.11
2022-08-23T02:34:33.485Z,12.00
2022-08-23T02:37:00.977Z,12.06
2022-08-23T02:39:28.228Z,11.98
2022-08-23T02:41:55.059Z,12.17
2022-08-23T02:44:22.208Z,12.25
2022-08-23T02:46:49.471Z,12.12
2022-08-23T02:49:17.534Z,12.13
2022-08-23T02:51:44.685Z,12.16
2022-08-23T02:54:11.977Z,12.20
2022-08-23T02:56:39.377Z,12.04
2022-08-23T02:59:06.801Z,12.01
2022-08-23T03:01:38.166Z,11.92
2022-08-23T03:04:08.714Z,11.95
2022-08-23T03:06:36.478Z,11.95
2022-08-23T03:09:06.290Z,11.94
2022-08-23T03:11:33.908Z,11.80
2022-08-23T03:14:01.398Z,11.81
2022-08-23T03:16:28.564Z,11.77
2022-08-23T03:18:55.406Z,11.68
2022-08-23T03:21:22.943Z,11.64
2022-08-23T03:23:49.894Z,11.61
2022-08-23T03:26:17.557Z,11.47
2022-08-23T03:28:45.870Z,11.56
2022-08-23T03:31:14.275Z,11.69
2022-08-23T03:33:41.258Z,11.67
2022-08-23T03:36:10.989Z,11.61
2022-08-23T03:38:39.562Z,11.69
2022-08-23T03:41:07.369Z,11.64
2022-08-23T03:43:35.041Z,11.53
2022-08-23T03:46:01.833Z,11.68
2022-08-23T03:48:28.649Z,11.70
2022-08-23T03:50:55.506Z,11.59
2022-08-23T03:53:23.926Z,11.57
2022-08-23T03:55:53.480Z,11.51
2022-08-23T03:58:21.782Z,11.45
2022-08-23T04:00:48.932Z,11.58
2022-08-23T04:03:16.231Z,11.63
2022-08-23T04:05:43.678Z,11.73
2022-08-23T04:08:11.421Z,11.81
2022-08-23T04:10:39.450Z,11.68
2022-08-23T04:13:09.386Z,11.77
2022-08-23T04:15:36.716Z,11.69
2022-08-23T04:18:04.423Z,11.57
2022-08-23T04:20:31.343Z,11.40
2022-08-23T04:22:58.692Z,11.31
2022-08-23T04:25:34.864Z,11.35
2022-08-23T04:28:03.511Z,11.31
2022-08-23T04:30:32.344Z,11.19
2022-08-23T04:32:59.213Z,11.12
2022-08-23T04:35:28.812Z,11.06
2022-08-23T04:37:55.707Z,11.12
2022-08-23T04:40:41.350Z,11.21
2022-08-23T04:43:08.762Z,11.31
2022-08-23T04:45:39.309Z,11.38
2022-08-23T04:48:11.836Z,11.28
2022-08-23T04:50:40.011Z,11.31
2022-08-23T04:53:07.785Z,11.17
2022-08-23T04:55:36.311Z,11.11
2022-08-23T04:58:05.161Z,11.18
2022-08-23T05:00:32.682Z,11.17
2022-08-23T05:02:59.898Z,11.13
2022-08-23T05:05:27.760Z,11.11
2022-08-23T05:07:55.302Z,11.01
2022-08-23T05:10:22.290Z,11.10
2022-08-23T05:12:49.161Z,11.21
2022-08-23T05:15:16.353Z,11.21
2022-08-23T05:17:43.622Z,11.28
2022-08-23T05:20:11.107Z,11.28
2022-08-23T05:22:41.797Z,11.16
2022-08-23T05:25:09.694Z,11.24
2022-08-23T05:27:36.966Z,11.27
2022-08-23T05:30:06.269Z,11.37
2022-08-23T05:32:33.723Z,11.38
2022-08-23T05:35:01.241Z,11.49
2022-08-23T05:37:28.285Z,11.63
2022-08-23T05:39:55.037Z,11.66
2022-08-23T05:42:22.477Z,11.67
2022-08-23T05:44:49.295Z,11.68
2022-08-23T05:47:17.549Z,11.80
2022-08-23T05:49:51.535Z,11.71
2022-08-23T05:52:18.338Z,11.76
2022-08-23T05:54:45.189Z,11.80
2022-08-23T05:57:11.937Z,11.89
2022-08-23T05:59:39.494Z,11.90
2022-08-23T06:02:06.222Z,11.98
2022-08-23T06:04:33.246Z,12.06
2022-08-23T06:07:00.095Z,12.15
2022-08-23T06:09:27.126Z,12.23
2022-08-23T06:11:54.164Z,12.25
2022-08-23T06:14:22.585Z,12.34
2022-08-23T06:16:55.572Z,12.41
2022-08-23T06:19:24.190Z,12.44
2022-08-23T06:21:52.869Z,12.59
2022-08-23T06:24:20.507Z,12.65
2022-08-23T06:26:47.802Z,12.64
2022-08-23T06:29:19.181Z,12.73
2022-08-23T06:31:49.533Z,12.88
2022-08-23T06:34:33.444Z,13.05
2022-08-23T06:37:07.587Z,13.19
2022-08-23T06:39:37.673Z,13.31
2022-08-23T06:42:38.378Z,13.53
2022-08-23T06:45:04.263Z,13.75
2022-08-23T06:47:31.762Z,13.89
2022-08-23T06:49:59.033Z,14.00
2022-08-23T06:52:27.699Z,14.06
2022-08-23T06:54:55.188Z,14.24
2022-08-23T06:57:22.138Z,14.31
2022-08-23T06:59:50.128Z,14.49
2022-08-23T07:02:17.431Z,14.60
2022-08-23T07:04:44.430Z,14.70
2022-08-23T07:07:12.527Z,14.89
2022-08-23T07:09:41.214Z,15.07
2022-08-23T07:12:09.117Z,15.27
2022-08-23T07:14:38.154Z,15.43
2022-08-23T07:17:06.028Z,15.57
2022-08-23T07:19:35.873Z,15.83
2022-08-23T07:22:05.584Z,16.05
2022-08-23T07:24:34.072Z,16.19
2022-08-23T07:27:06.896Z,16.40
2022-08-23T07:29:37.376Z,16.61
2022-08-23T07:32:04.853Z,16.86
2022-08-23T07:34:32.024Z,17.07
2022-08-23T07:36:58.841Z,17.25
2022-08-23T07:39:26.662Z,17.52
2022-08-23T07:41:53.567Z,17.63
2022-08-23T07:44:27.180Z,17.86
2022-08-23T07:46:54.751Z,18.07
2022-08-23T07:49:22.161Z,18.27
2022-08-23T07:51:51.141Z,18.44
2022-08-23T07:54:20.234Z,18.69
2022-08-23T07:56:47.078Z,18.83
2022-08-23T07:59:14.361Z,19.08
2022-08-23T08:01:44.040Z,19.33
2022-08-23T08:04:11.589Z,19.52
2022-08-23T08:07:04.761Z,19.74
2022-08-23T08:09:35.647Z,20.02
2022-08-23T08:12:02.500Z,20.16
2022-08-23T08:14:29.284Z,20.41
2022-08-23T08:16:58.627Z,20.55
2022-08-23T08:19:25.595Z,20.80
2022-08-23T08:21:52.445Z,21.06
2022-08-23T08:24:19.303Z,20.81
2022-08-23T08:26:46.972Z,21.03
2022-08-23T08:29:14.833Z,21.06
2022-08-23T08:31:45.443Z,21.44
2022-08-23T08:34:13.498Z,21.56
2022-08-23T08:36:45.817Z,21.22
2022-08-23T08:39:20.722Z,21.35
2022-08-23T08:42:04.751Z,21.70
2022-08-23T08:44:42.389Z,21.98
2022-08-23T08:47:48.508Z,22.31
2022-08-23T08:50:26.726Z,22.18
2022-08-23T08:53:24.024Z,22.40
2022-08-23T08:55:56.387Z,22.73
2022-08-23T08:58:31.002Z,22.84
2022-08-23T09:00:58.880Z,23.04
2022-08-23T09:03:33.196Z,23.33
2022-08-23T09:06:21.692Z,23.59
2022-08-23T09:09:42.176Z,23.83
2022-08-23T09:12:56.133Z,23.84
2022-08-23T09:15:39.684Z,24.03
2022-08-23T09:18:15.089Z,24.04
2022-08-23T09:20:45.802Z,23.92
2022-08-23T09:23:23.063Z,24.09
2022-08-23T09:26:03.473Z,24.27
2022-08-23T09:28:36.483Z,24.26
2022-08-23T09:31:08.227Z,24.28
2022-08-23T09:33:49.022Z,24.53
2022-08-23T09:36:23.624Z,24.96
2022-08-23T09:39:30.886Z,25.08
2022-08-23T09:41:59.407Z,25.16
2022-08-23T09:44:40.640Z,25.48
2022-08-23T09:47:17.266Z,25.74
2022-08-23T09:49:48.416Z,25.88
2022-08-23T09:52:25.689Z,25.16
2022-08-23T09:55:26.045Z,25.56
2022-08-23T09:57:53.454Z,25.52
2022-08-23T10:00:34.281Z,25.64
2022-08-23T10:03:27.710Z,25.93
2022-08-23T10:06:00.964Z,25.64
2022-08-23T10:08:35.436Z,25.96
2022-08-23T10:11:16.323Z,26.05
2022-08-23T10:13:43.736Z,26.18
2022-08-23T10:16:36.830Z,26.19
2022-08-23T10:19:15.514Z,26.23
2022-08-23T10:21:57.797Z,26.59
2022-08-23T10:24:43.997Z,26.72
2022-08-23T10:27:51.063Z,26.68
2022-08-23T10:30:42.585Z,26.88
2022-08-23T10:33:22.397Z,26.99
2022-08-23T10:36:09.292Z,26.99
2022-08-23T10:39:16.719Z,27.05
2022-08-23T10:42:31.809Z,27.15
2022-08-23T10:45:20.253Z,27.55
2022-08-23T10:48:28.912Z,27.62
2022-08-23T10:51:08.255Z,27.82
2022-08-23T10:53:49.101Z,27.96
2022-08-23T10:56:21.218Z,28.00
2022-08-23T10:58:57.635Z,28.23
2022-08-23T11:01:37.847Z,28.01
2022-08-23T11:04:14.954Z,27.98
2022-08-23T11:06:56.521Z,28.01
2022-08-23T11:09:25.825Z,28.15
2022-08-23T11:12:24.266Z,28.33
2022-08-23T11:14:59.933Z,28.22
2022-08-23T11:17:56.109Z,28.38
2022-08-23T11:20:50.606Z,27.98
2022-08-23T11:23:40.780Z,28.32
2022-08-23T11:26:36.452Z,28.62
2022-08-23T11:29:06.309Z,28.95
2022-08-23T11:32:16.725Z,28.99
2022-08-23T11:35:05.863Z,29.30
2022-08-23T11:38:04.798Z,29.29
2022-08-23T11:40:49.484Z,29.21
2022-08-23T11:43:32.104Z,28.25
2022-08-23T11:46:23.404Z,27.29
2022-08-23T11:49:24.668Z,27.20
2022-08-23T11:52:25.265Z,27.98
2022-08-23T11:55:00.816Z,28.33
2022-08-23T11:58:21.130Z,28.61
2022-08-23T12:01:22.843Z,28.39
2022-08-23T12:04:10.885Z,28.15
2022-08-23T12:07:01.696Z,28.38
2022-08-23T12:09:28.402Z,28.40
2022-08-23T12:11:55.097Z,28.53
2022-08-23T12:14:40.296Z,28.53
2022-08-23T12:17:13.068Z,28.48
2022-08-23T12:19:49.798Z,28.44
2022-08-23T12:22:25.039Z,28.98
2022-08-23T12:25:06.222Z,29.18
2022-08-23T12:27:41.809Z,29.17
2022-08-23T12:30:22.526Z,29.29
2022-08-23T12:32:57.602Z,29.46
2022-08-23T12:36:03.904Z,29.76
2022-08-23T12:39:01.860Z,29.55
2022-08-23T12:41:33.805Z,29.11
2022-08-23T12:44:10.493Z,29.18
2022-08-23T12:46:43.613Z,29.19
2022-08-23T12:49:23.471Z,29.57
2022-08-23T12:51:54.333Z,28.97
2022-08-23T12:54:35.016Z,29.74
2022-08-23T12:57:09.909Z,30.03
2022-08-23T12:59:43.563Z,30.22
2022-08-23T13:02:14.275Z,30.19
2022-08-23T13:04:43.289Z,30.35
2022-08-23T13:07:22.235Z,30.53
2022-08-23T13:09:53.617Z,30.59
2022-08-23T13:12:22.779Z,30.70
2022-08-23T13:14:52.887Z,30.64
2022-08-23T13:17:25.580Z,30.66
2022-08-23T13:20:22.937Z,30.93
2022-08-23T13:23:09.423Z,30.83
2022-08-23T13:25:40.778Z,30.67
2022-08-23T13:28:27.590Z,30.77
2022-08-23T13:31:06.130Z,30.92
2022-08-23T13:33:33.084Z,30.95
2022-08-23T13:36:13.728Z,30.90
2022-08-23T13:38:42.468Z,30.84
2022-08-23T13:41:14.089Z,30.88
2022-08-23T13:43:51.180Z,31.18
2022-08-23T13:46:22.831Z,31.04
2022-08-23T13:48:52.667Z,31.27
2022-08-23T13:51:42.633Z,31.43
2022-08-23T13:54:15.326Z,31.62
2022-08-23T13:57:15.937Z,31.61
2022-08-23T13:59:54.860Z,31.67
2022-08-23T14:02:24.274Z,31.71
2022-08-23T14:04:51.431Z,31.59
2022-08-23T14:07:18.854Z,31.86
2022-08-23T14:09:45.692Z,32.18
2022-08-23T14:12:18.971Z,32.36
2022-08-23T14:14:46.613Z,32.44
2022-08-23T14:17:16.995Z,32.14
2022-08-23T14:22:34.938Z,32.39
2022-08-23T14:25:01.878Z,32.20
2022-08-23T14:27:28.702Z,32.21
2022-08-23T14:29:55.510Z,32.46
2022-08-23T14:32:22.442Z,32.62
2022-08-23T14:34:49.376Z,33.00
2022-08-23T14:40:05.105Z,32.96
2022-08-23T14:42:32.293Z,33.48
2022-08-23T14:44:59.089Z,34.06
2022-08-23T14:47:26.938Z,34.03
2022-08-23T14:49:54.252Z,34.34
2022-08-23T14:52:22.284Z,34.54
2022-08-23T14:54:49.938Z,34.50
2022-08-23T14:57:16.898Z,35.31
2022-08-23T14:59:43.754Z,35.68
2022-08-23T15:02:13.844Z,36.44
2022-08-23T15:04:42.244Z,36.91
2022-08-23T15:07:18.563Z,37.33
2022-08-23T15:09:51.509Z,36.83
2022-08-23T15:15:15.975Z,35.97
2022-08-23T15:17:56.264Z,36.51
2022-08-23T15:20:28.326Z,35.97
2022-08-23T15:22:56.155Z,35.80
2022-08-23T15:25:25.612Z,36.13
2022-08-23T15:27:53.253Z,36.01
2022-08-23T15:30:22.010Z,35.13
2022-08-23T15:32:52.720Z,35.01
2022-08-23T15:35:25.084Z,34.69
2022-08-23T15:37:54.598Z,34.51
2022-08-23T15:40:21.787Z,33.44
2022-08-23T15:42:48.893Z,32.28
2022-08-23T15:45:15.794Z,31.63
2022-08-23T15:47:56.252Z,30.83
2022-08-23T15:50:27.981Z,30.89
2022-08-23T15:52:55.233Z,30.71
2022-08-23T15:55:22.157Z,30.53
2022-08-23T15:57:52.420Z,30.37
2022-08-23T16:00:22.682Z,29.85
2022-08-23T16:03:19.947Z,29.07
2022-08-23T16:05:41.256Z,29.06
2022-08-23T16:08:09.164Z,29.17
2022-08-23T16:10:36.001Z,28.67
2022-08-23T16:13:03.855Z,28.63
2022-08-23T16:15:30.786Z,28.49
2022-08-23T16:17:57.897Z,28.28
2022-08-23T16:20:25.470Z,28.36
2022-08-23T16:22:52.268Z,28.19
2022-08-23T16:25:19.435Z,28.38
2022-08-23T16:27:46.256Z,28.38
2022-08-23T16:30:14.407Z,28.29
2022-08-23T16:32:41.835Z,28.19
2022-08-23T16:35:09.790Z,27.65
2022-08-23T16:37:36.716Z,27.32
2022-08-23T16:40:09.385Z,27.40
2022-08-23T16:42:36.536Z,27.53
2022-08-23T16:45:03.934Z,26.93
2022-08-23T16:47:36.942Z,27.14
2022-08-23T16:50:05.068Z,27.34
2022-08-23T16:52:34.660Z,27.35
2022-08-23T16:55:06.102Z,26.93
2022-08-23T16:57:33.269Z,26.95
2022-08-23T17:00:00.042Z,27.01
2022-08-23T17:02:33.127Z,27.09
2022-08-23T17:05:00.181Z,27.22
2022-08-23T17:07:27.261Z,27.25
2022-08-23T17:09:54.020Z,27.13
2022-08-23T17:12:21.708Z,27.15
2022-08-23T17:14:50.869Z,26.91
2022-08-23T17:17:18.389Z,26.78
2022-08-23T17:19:45.162Z,26.52
2022-08-23T17:22:12.586Z,26.61
2022-08-23T17:24:39.522Z,26.56
2022-08-23T17:27:07.595Z,26.48
2022-08-23T17:29:37.439Z,26.45
2022-08-23T17:32:05.354Z,26.30
2022-08-23T17:34:32.178Z,26.13
2022-08-23T17:36:59.073Z,25.97
2022-08-23T17:39:29.308Z,25.80
2022-08-23T17:41:58.006Z,25.55
2022-08-23T17:44:25.279Z,25.50
2022-08-23T17:46:52.164Z,25.43
2022-08-23T17:49:19.902Z,25.25
2022-08-23T17:51:46.976Z,25.01
2022-08-23T17:54:16.387Z,24.91
2022-08-23T17:56:50.123Z,24.64
2022-08-23T17:59:19.434Z,24.57
2022-08-23T18:01:47.010Z,24.51
2022-08-23T18:04:14.111Z,24.37
2022-08-23T18:06:41.217Z,24.29
2022-08-23T18:09:08.535Z,24.11
2022-08-23T18:11:35.475Z,24.06
2022-08-23T18:14:03.014Z,23.91
2022-08-23T18:16:34.981Z,23.77
2022-08-23T18:19:04.826Z,23.68
2022-08-23T18:21:32.015Z,23.57
2022-08-23T18:23:59.569Z,23.46
2022-08-23T18:26:46.261Z,23.29
2022-08-23T18:29:14.540Z,23.14
2022-08-23T18:31:45.031Z,23.05
2022-08-23T18:34:13.202Z,22.91
2022-08-23T18:36:40.561Z,22.82
2022-08-23T18:39:09.016Z,22.67
2022-08-23T18:41:36.518Z,22.51
2022-08-23T18:44:05.663Z,22.39
2022-08-23T18:46:39.012Z,22.29
2022-08-23T18:49:08.174Z,22.13
2022-08-23T18:51:35.651Z,22.00
2022-08-23T18:54:02.901Z,21.89
2022-08-23T18:56:29.730Z,21.61
2022-08-23T18:58:56.507Z,21.73
2022-08-23T19:01:36.800Z,21.52
2022-08-23T19:04:07.216Z,21.42
2022-08-23T19:06:34.657Z,21.29
2022-08-23T19:09:01.565Z,20.98
2022-08-23T19:11:29.440Z,20.91
2022-08-23T19:13:58.218Z,20.83
2022-08-23T19:16:26.427Z,20.78
2022-08-23T19:18:54.902Z,20.68
2022-08-23T19:21:24.553Z,20.59
2022-08-23T19:23:54.073Z,20.47
2022-08-23T19:26:25.967Z,20.34
2022-08-23T19:28:53.123Z,20.12
2022-08-23T19:31:20.003Z,20.04
2022-08-23T19:33:46.804Z,20.01
2022-08-23T19:36:35.613Z,20.00
2022-08-23T19:39:00.678Z,19.78
2022-08-23T19:41:27.513Z,19.43
2022-08-23T19:43:54.295Z,19.27
2022-08-23T19:46:21.194Z,19.25
2022-08-23T19:48:48.792Z,19.22
2022-08-23T19:51:21.085Z,19.03
2022-08-23T19:54:11.191Z,18.95
2022-08-23T19:56:48.507Z,18.82
2022-08-23T19:59:24.583Z,18.94
2022-08-23T20:01:53.542Z,18.84
2022-08-23T20:04:22.533Z,18.96
2022-08-23T20:06:50.593Z,18.77
2022-08-23T20:09:19.322Z,18.47
2022-08-23T20:11:46.659Z,18.51
2022-08-23T20:14:13.720Z,18.37
2022-08-23T20:16:41.518Z,18.42
2022-08-23T20:19:10.741Z,18.42
2022-08-23T20:21:40.094Z,18.39
2022-08-23T20:24:11.727Z,18.29
2022-08-23T20:26:46.769Z,18.24
2022-08-23T20:29:25.322Z,18.23
2022-08-23T20:31:57.200Z,18.14
2022-08-23T20:34:27.016Z,17.97
2022-08-23T20:36:56.263Z,18.10
2022-08-23T20:39:24.332Z,17.94
2022-08-23T20:41:52.935Z,17.83
2022-08-23T20:44:21.737Z,17.66
2022-08-23T20:46:53.780Z,17.42
2022-08-23T20:49:22.478Z,17.34
2022-08-23T20:51:50.305Z,17.41
2022-08-23T20:54:18.231Z,17.54
2022-08-23T20:56:45.106Z,17.56
2022-08-23T20:59:14.603Z,17.41
2022-08-23T21:01:41.409Z,17.46
2022-08-23T21:04:08.289Z,17.50
2022-08-23T21:06:45.376Z,17.33
2022-08-23T21:09:17.207Z,17.18
2022-08-23T21:11:44.190Z,17.03
2022-08-23T21:14:11.515Z,17.02
2022-08-23T21:16:38.734Z,16.96
2022-08-23T21:19:06.520Z,16.99
2022-08-23T21:21:33.830Z,16.82
2022-08-23T21:24:01.042Z,16.63
2022-08-23T21:26:27.869Z,16.56
2022-08-23T21:28:54.727Z,16.43
2022-08-23T21:31:24.946Z,16.31
2022-08-23T21:33:52.937Z,16.41
2022-08-23T21:36:22.180Z,16.46
2022-08-23T21:38:49.969Z,16.45
2022-08-23T21:41:38.208Z,16.34
2022-08-23T21:44:14.960Z,16.17
2022-08-23T21:46:43.079Z,16.12
2022-08-23T21:49:12.151Z,16.12
2022-08-23T21:51:46.422Z,16.24
2022-08-23T21:54:14.505Z,16.21
2022-08-23T21:56:42.094Z,16.25
2022-08-23T21:59:13.170Z,16.05
2022-08-23T22:01:41.652Z,15.87
2022-08-23T22:04:15.080Z,15.81
2022-08-23T22:06:46.368Z,15.87
2022-08-23T22:09:20.769Z,16.03
2022-08-23T22:11:55.382Z,16.07
2022-08-23T22:14:25.146Z,15.90
2022-08-23T22:16:59.817Z,15.81
2022-08-23T22:19:28.307Z,15.64
2022-08-23T22:21:57.233Z,15.38
2022-08-23T22:24:26.082Z,15.38
2022-08-23T22:26:53.481Z,15.36
2022-08-23T22:29:20.270Z,15.28
2022-08-23T22:31:48.669Z,15.16
2022-08-23T22:34:15.930Z,15.24
2022-08-23T22:36:42.829Z,15.22
2022-08-23T22:39:09.878Z,15.21
2022-08-23T22:41:37.349Z,15.25
2022-08-23T22:44:04.501Z,15.23
2022-08-23T22:46:34.196Z,15.24
2022-08-23T22:49:01.844Z,15.18
2022-08-23T22:51:32.772Z,15.30
2022-08-23T22:54:04.298Z,15.40
2022-08-23T22:56:40.994Z,15.26
2022-08-23T22:59:08.968Z,15.17
2022-08-23T23:01:41.966Z,15.15
2022-08-23T23:04:14.636Z,15.32
2022-08-23T23:06:41.755Z,15.28
2022-08-23T23:09:10.853Z,15.36
2022-08-23T23:11:40.178Z,15.22
2022-08-23T23:14:09.017Z,15.28
2022-08-23T23:16:36.266Z,15.12
2022-08-23T23:19:21.614Z,14.98
2022-08-23T23:21:54.404Z,14.99
2022-08-23T23:24:29.384Z,15.00
2022-08-23T23:26:57.190Z,14.82
2022-08-23T23:29:25.002Z,14.62
2022-08-23T23:31:51.875Z,14.46
2022-08-23T23:34:19.440Z,14.47
2022-08-23T23:36:46.930Z,14.36
2022-08-23T23:39:15.818Z,14.44
2022-08-23T23:41:43.334Z,14.48
2022-08-23T23:44:10.141Z,14.52
2022-08-23T23:46:36.981Z,14.58
2022-08-23T23:49:04.470Z,14.73
2022-08-23T23:51:32.918Z,14.79
2022-08-23T23:54:01.327Z,14.63
2022-08-23T23:56:30.726Z,14.52
2022-08-23T23:58:58.787Z,14.43
